Time;durP1;ratioP1;P1;durP2;ratioP2;P2;SDS_P1;SDS_P2;PMS_P1;PMS_P2;Temp;Humidity;BMP_temperature;BMP_pressure;BME280_temperature;BME280_humidity;BME280_pressure;Samples;Min_cycle;Max_cycle;Signal;HPM_P1;HPM_P2
2022/12/09 07:23:46;;;;;;;;;32.00;24.33;;;;;2.99;100.00;100494.00;5998964;23;46801;31
2022/12/09 07:26:13;;;;;;;;;23.00;23.00;;;;;3.03;100.00;100486.47;4880917;28;51172;-62
2022/12/09 07:28:41;;;;;;;;;33.75;23.75;;;;;3.09;100.00;100485.88;4874232;29;49919;-63
2022/12/09 07:31:16;;;;;;;;;24.50;22.00;;;;;3.11;100.00;100500.69;4875750;29;49517;-64
2022/12/09 07:33:41;;;;;;;;;26.00;22.25;;;;;2.56;100.00;100389.22;4876001;29;50037;-63
2022/12/09 07:36:06;;;;;;;;;31.75;27.00;;;;;2.96;100.00;100479.22;4875619;29;50997;-64
2022/12/09 07:38:32;;;;;;;;;24.75;20.00;;;;;2.92;100.00;100469.53;4875771;29;49854;-63
2022/12/09 07:41:03;;;;;;;;;18.75;18.25;;;;;2.80;100.00;100466.38;4875392;29;49788;-63
2022/12/09 07:43:32;;;;;;;;;24.50;23.50;;;;;2.98;100.00;100503.50;4875246;29;49997;-63
2022/12/09 07:45:57;;;;;;;;;32.75;29.75;;;;;2.95;100.00;100497.28;4875185;29;50539;-63
2022/12/09 07:48:22;;;;;;;;;26.75;23.25;;;;;3.03;100.00;100504.63;4874412;29;49832;-68
2022/12/09 07:50:47;;;;;;;;;22.50;20.00;;;;;2.48;100.00;100428.53;4874907;29;49776;-78
2022/12/09 07:53:13;;;;;;;;;30.25;23.75;;;;;3.05;100.00;100505.56;4874744;29;55015;-63
2022/12/09 07:55:38;;;;;;;;;29.50;22.50;;;;;3.16;100.00;100508.66;4875028;29;50936;-63
2022/12/09 07:58:03;;;;;;;;;16.33;15.33;;;;;3.04;100.00;100505.50;4875098;29;49968;-63
2022/12/09 08:00:29;;;;;;;;;22.25;20.00;;;;;3.03;100.00;100501.13;4875380;29;49867;-64
2022/12/09 08:02:54;;;;;;;;;24.00;22.50;;;;;3.24;100.00;100514.19;4874591;29;50132;-72
2022/12/09 08:05:19;;;;;;;;;29.00;21.75;;;;;3.20;100.00;100513.19;4874725;29;50931;-63
2022/12/09 08:07:45;;;;;;;;;24.00;22.00;;;;;3.06;100.00;100501.25;4874301;29;49988;-63
2022/12/09 08:10:11;;;;;;;;;24.25;20.25;;;;;2.73;100.00;100447.03;4874906;29;49879;-62
2022/12/09 08:12:36;;;;;;;;;32.00;25.00;;;;;2.47;100.00;100385.31;4874993;29;49828;-62
2022/12/09 08:15:01;;;;;;;;;29.50;23.25;;;;;3.35;100.00;100518.16;4874303;29;50743;-62
2022/12/09 08:17:29;;;;;;;;;32.50;26.25;;;;;3.40;100.00;100519.28;4874412;29;49820;-62
2022/12/09 08:19:55;;;;;;;;;34.50;27.25;;;;;3.06;100.00;100452.00;4874790;29;49696;-63
2022/12/09 08:22:20;;;;;;;;;22.50;21.00;;;;;3.08;100.00;100464.19;4874634;29;50126;-62
2022/12/09 08:24:45;;;;;;;;;28.75;22.00;;;;;3.23;100.00;100489.97;4874175;29;50399;-62
2022/12/09 08:27:11;;;;;;;;;28.50;22.75;;;;;3.23;100.00;100504.66;4874449;29;49771;-63
2022/12/09 08:29:36;;;;;;;;;17.25;15.75;;;;;3.15;100.00;100486.13;4874448;29;50286;-63
2022/12/09 08:32:02;;;;;;;;;30.50;21.25;;;;;3.28;100.00;100510.91;4874144;29;49887;-66
2022/12/09 08:34:27;;;;;;;;;19.75;19.25;;;;;2.93;100.00;100427.22;4874439;29;51021;-66
2022/12/09 08:36:52;;;;;;;;;24.75;24.25;;;;;3.43;100.00;100491.75;4874324;29;49925;-63
2022/12/09 08:39:18;;;;;;;;;29.00;26.50;;;;;2.78;100.00;100365.16;4873878;29;49927;-63
2022/12/09 08:41:43;;;;;;;;;28.75;26.75;;;;;3.49;100.00;100472.09;4873701;29;50057;-69
2022/12/09 08:44:14;;;;;;;;;28.75;25.25;;;;;3.34;100.00;100444.63;4874522;29;50018;-64
2022/12/09 08:46:42;;;;;;;;;41.25;36.75;;;;;3.28;100.00;100427.91;4869250;29;49641;-63
2022/12/09 08:49:09;;;;;;;;;26.50;23.50;;;;;2.78;100.00;100338.38;4874882;29;49947;-81
2022/12/09 08:51:35;;;;;;;;;46.50;38.00;;;;;3.82;100.00;100507.31;4874787;29;49829;-63
2022/12/09 08:54:01;;;;;;;;;30.00;27.50;;;;;3.63;100.00;100471.88;4872608;29;49902;-63
2022/12/09 08:56:27;;;;;;;;;39.75;34.50;;;;;3.52;100.00;100456.66;4874331;29;49752;-63
2022/12/09 08:58:53;;;;;;;;;54.00;45.75;;;;;3.86;100.00;100530.03;4875687;29;49828;-69
2022/12/09 09:01:25;;;;;;;;;40.00;37.25;;;;;3.82;100.00;100522.91;4877469;29;49795;-68
2022/12/09 09:03:51;;;;;;;;;31.50;31.00;;;;;3.90;100.00;100525.84;4877143;29;50554;-66
2022/12/09 09:06:18;;;;;;;;;36.25;31.75;;;;;3.81;100.00;100528.91;4873159;29;49816;-64
2022/12/09 09:08:43;;;;;;;;;37.50;35.00;;;;;3.73;100.00;100532.88;4876903;29;49828;-65
2022/12/09 09:11:14;;;;;;;;;33.50;26.75;;;;;3.61;100.00;100527.16;4877673;29;49849;-67
2022/12/09 09:13:42;;;;;;;;;33.75;27.75;;;;;3.61;100.00;100515.06;4877327;29;49874;-64
2022/12/09 09:16:10;;;;;;;;;42.50;34.75;;;;;3.72;100.00;100525.91;4877617;29;49645;-64
2022/12/09 09:18:36;;;;;;;;;39.50;35.50;;;;;3.77;100.00;100520.94;4877440;29;49802;-64
2022/12/09 09:21:02;;;;;;;;;12.25;11.25;;;;;3.67;100.00;100540.41;4877693;29;49918;-69
2022/12/09 09:23:27;;;;;;;;;33.25;29.75;;;;;3.64;100.00;100522.97;4877417;29;49717;-66
2022/12/09 09:25:52;;;;;;;;;48.50;42.50;;;;;3.33;100.00;100454.94;4877019;29;49805;-64
2022/12/09 09:28:18;;;;;;;;;27.75;24.75;;;;;3.75;100.00;100518.25;4877564;29;49998;-70
2022/12/09 09:30:44;;;;;;;;;35.75;27.25;;;;;3.46;100.00;100467.63;4877857;29;49841;-66
2022/12/09 09:33:09;;;;;;;;;23.00;21.75;;;;;3.71;100.00;100506.84;4876602;29;49755;-63
2022/12/09 09:35:35;;;;;;;;;46.50;35.00;;;;;3.94;100.00;100525.13;4877244;29;49761;-64
2022/12/09 09:38:00;;;;;;;;;29.75;27.75;;;;;3.94;100.00;100513.03;4876417;29;50359;-70
2022/12/09 09:40:28;;;;;;;;;33.25;30.25;;;;;4.02;100.00;100496.06;4876946;29;50119;-66
2022/12/09 09:42:56;;;;;;;;;22.25;19.50;;;;;4.22;100.00;100522.91;4877220;29;50694;-64
2022/12/09 09:45:23;;;;;;;;;31.00;25.25;;;;;4.41;100.00;100528.88;4876797;29;49828;-64
2022/12/09 09:47:51;;;;;;;;;31.75;28.50;;;;;4.52;100.00;100522.41;4876675;29;49817;-67
2022/12/09 09:50:22;;;;;;;;;30.25;25.25;;;;;4.53;99.77;100525.06;4876603;29;49808;-63
2022/12/09 09:52:51;;;;;;;;;43.00;34.75;;;;;4.57;100.00;100531.28;4876819;29;50450;-68
2022/12/09 09:55:22;;;;;;;;;32.50;28.50;;;;;4.27;100.00;100486.72;4876819;29;49722;-63
2022/12/09 09:57:57;;;;;;;;;35.75;29.25;;;;;4.44;99.75;100506.50;4876865;29;49986;-64
2022/12/09 10:00:34;;;;;;;;;41.00;35.25;;;;;4.24;99.69;100445.00;4890736;28;49891;-72
2022/12/09 10:03:10;;;;;;;;;27.50;24.25;;;;;4.27;99.49;100432.16;4876638;29;50528;-70
2022/12/09 10:05:57;;;;;;;;;32.50;30.00;;;;;4.82;98.99;100521.03;4876990;29;49755;-63
2022/12/09 10:08:44;;;;;;;;;34.75;27.25;;;;;4.88;98.77;100517.78;4876324;29;49853;-68
2022/12/09 10:11:22;;;;;;;;;39.75;29.00;;;;;4.81;97.81;100510.56;4875905;29;49619;-73
2022/12/09 10:14:17;;;;;;;;;38.00;32.75;;;;;4.79;98.40;100514.81;4875634;29;49763;-63
2022/12/09 10:16:53;;;;;;;;;29.75;27.75;;;;;4.73;98.37;100505.09;4873298;29;49617;-65
2022/12/09 10:19:40;;;;;;;;;30.50;28.75;;;;;4.72;98.58;100500.69;4875575;29;49717;-65
2022/12/09 10:22:20;;;;;;;;;46.50;38.00;;;;;4.73;98.79;100489.50;4876567;29;50026;-65
2022/12/09 10:24:49;;;;;;;;;41.25;34.00;;;;;4.48;99.74;100421.72;4889371;28;51768;-65
2022/12/09 10:27:34;;;;;;;;;42.00;38.50;;;;;5.03;99.82;100495.00;4876330;29;49976;-74
2022/12/09 10:30:05;;;;;;;;;43.00;37.25;;;;;4.84;98.59;100458.69;4876650;29;50150;-65
2022/12/09 10:32:35;;;;;;;;;44.25;39.50;;;;;5.14;98.59;100496.28;4875767;29;49883;-71
2022/12/09 10:35:12;;;;;;;;;45.50;38.50;;;;;4.73;96.87;100408.88;4876100;29;50565;-65
2022/12/09 10:37:37;;;;;;;;;44.50;36.75;;;;;5.03;97.57;100449.88;4875201;29;49978;-68
2022/12/09 10:40:06;;;;;;;;;48.50;42.50;;;;;5.36;95.85;100499.69;4876271;29;50403;-69
2022/12/09 10:45:30;;;;;;;;;34.00;31.50;;;;;5.38;96.33;100449.47;4875673;29;50208;-71
2022/12/09 10:47:56;;;;;;;;;37.00;31.50;;;;;5.54;95.24;100474.34;4876276;29;49728;-65
2022/12/09 10:50:30;;;;;;;;;43.00;34.00;;;;;5.37;94.97;100426.88;4876201;29;49915;-71
2022/12/09 10:52:57;;;;;;;;;41.00;32.75;;;;;5.69;94.28;100460.97;4876386;29;50121;-72
2022/12/09 10:55:29;;;;;;;;;36.50;30.50;;;;;5.51;93.20;100435.19;4876106;29;49968;-77
2022/12/09 10:58:19;;;;;;;;;49.25;35.75;;;;;5.72;92.88;100472.41;4876320;29;49843;-68
2022/12/09 11:01:09;;;;;;;;;40.00;31.25;;;;;5.49;92.01;100416.00;4871173;29;50039;-79
2022/12/09 11:03:34;;;;;;;;;36.00;32.25;;;;;5.83;92.20;100464.97;4876195;29;49764;-71
2022/12/09 11:06:22;;;;;;;;;26.00;26.00;;;;;5.66;89.70;100425.28;4876131;29;49983;-67
2022/12/09 11:08:54;;;;;;;;;30.25;28.50;;;;;5.65;90.77;100426.13;4868757;29;49668;-64
2022/12/09 11:11:38;;;;;;;;;31.50;27.75;;;;;5.66;91.09;100440.91;4876212;29;49907;-70
2022/12/09 11:14:21;;;;;;;;;38.25;27.00;;;;;5.31;91.08;100397.16;4876267;29;49713;-66
2022/12/09 11:16:57;;;;;;;;;43.25;33.00;;;;;5.30;90.80;100388.41;4875909;29;50423;-65
2022/12/09 11:19:34;;;;;;;;;37.25;32.00;;;;;5.08;91.52;100350.34;4875835;29;49739;-73
2022/12/09 11:22:40;;;;;;;;;41.50;36.00;;;;;5.51;91.45;100397.84;4874546;29;49848;-66
2022/12/09 11:25:14;;;;;;;;;44.25;41.00;;;;;5.69;91.39;100450.56;4874979;29;49933;-75
2022/12/09 11:27:54;;;;;;;;;49.50;41.50;;;;;5.68;91.70;100449.66;4875368;29;50340;-67
2022/12/09 11:30:26;;;;;;;;;53.50;42.75;;;;;5.34;93.09;100394.66;4875846;29;49893;-72
2022/12/09 11:32:55;;;;;;;;;49.50;42.25;;;;;5.28;93.44;100392.69;4876128;29;49982;-69
2022/12/09 11:35:28;;;;;;;;;36.75;32.25;;;;;5.81;94.08;100450.13;4876534;29;49998;-66
2022/12/09 11:37:53;;;;;;;;;57.00;43.00;;;;;4.65;93.45;100258.59;4875417;29;50054;-65
2022/12/09 11:40:19;;;;;;;;;48.25;41.25;;;;;4.88;92.96;100258.59;4875562;29;49764;-62
2022/12/09 11:42:51;;;;;;;;;50.00;41.75;;;;;5.86;92.70;100427.69;4875631;29;49877;-65
2022/12/09 11:45:23;;;;;;;;;49.75;40.50;;;;;4.34;92.08;100182.09;4875826;29;49698;-67
2022/12/09 11:47:50;;;;;;;;;44.00;39.25;;;;;5.32;91.65;100354.66;4889928;29;51842;-63
2022/12/09 11:50:20;;;;;;;;;46.50;38.25;;;;;5.82;92.19;100447.56;4875706;29;49739;-63
2022/12/09 11:53:03;;;;;;;;;46.25;39.00;;;;;5.43;92.26;100380.25;4875566;29;49705;-63
2022/12/09 11:55:30;;;;;;;;;50.00;41.75;;;;;5.69;92.81;100428.03;4875717;29;49662;-69
2022/12/09 11:58:05;;;;;;;;;35.25;31.50;;;;;5.61;91.80;100439.88;4875259;29;50698;-64
2022/12/09 12:00:58;;;;;;;;;34.00;33.00;;;;;5.32;92.76;100386.78;4875401;29;49725;-65
2022/12/09 12:03:47;;;;;;;;;39.00;36.75;;;;;5.51;94.42;100419.56;4875075;29;49814;-66
2022/12/09 12:06:36;;;;;;;;;39.75;36.75;;;;;5.57;93.23;100427.56;4875583;29;49805;-63
2022/12/09 12:09:16;;;;;;;;;41.50;34.75;;;;;5.20;95.19;100357.69;4867604;29;49867;-71
2022/12/09 12:12:08;;;;;;;;;40.25;34.50;;;;;5.44;94.58;100428.88;4875261;29;49628;-67
2022/12/09 12:14:36;;;;;;;;;36.00;32.25;;;;;5.42;94.42;100429.66;4856440;29;50163;-64
2022/12/09 12:17:18;;;;;;;;;40.75;35.00;;;;;5.19;94.21;100400.16;4875393;29;49739;-76
2022/12/09 12:19:48;;;;;;;;;45.50;38.75;;;;;5.13;95.29;100423.38;4874663;29;50576;-73
2022/12/09 12:22:19;;;;;;;;;43.75;39.00;;;;;5.42;95.77;100447.88;4874878;29;49883;-66
2022/12/09 12:24:53;;;;;;;;;43.00;38.75;;;;;5.40;95.47;100454.72;4875280;29;49907;-75
2022/12/09 12:27:58;;;;;;;;;48.75;34.75;;;;;4.15;94.47;100248.09;4875324;29;49974;-67
2022/12/09 12:30:48;;;;;;;;;39.00;34.00;;;;;5.46;94.29;100440.22;4874785;29;49697;-74
2022/12/09 12:33:30;;;;;;;;;38.25;35.25;;;;;5.52;94.39;100431.75;4873893;29;49692;-66
2022/12/09 12:36:07;;;;;;;;;36.25;33.75;;;;;5.32;94.14;100398.91;4875041;29;49665;-69
2022/12/09 12:39:16;;;;;;;;;44.25;31.75;;;;;5.61;94.23;100433.78;4874957;29;49805;-74
2022/12/09 12:41:56;;;;;;;;;36.00;34.50;;;;;5.57;94.12;100426.69;4852546;29;49905;-72
2022/12/09 12:47:19;;;;;;;;;37.00;32.25;;;;;5.31;94.32;100379.81;4878400;29;49874;-76
2022/12/09 12:49:55;;;;;;;;;28.75;25.75;;;;;5.53;93.67;100428.31;4883121;29;50030;-76
2022/12/09 12:52:27;;;;;;;;;30.00;28.50;;;;;5.50;94.50;100427.28;4880406;29;49709;-72
2022/12/09 12:55:25;;;;;;;;;26.75;22.50;;;;;5.59;95.02;100425.91;4878749;29;49655;-71
2022/12/09 12:58:01;;;;;;;;;27.75;26.25;;;;;5.59;94.32;100419.81;4882771;29;49621;-69
2022/12/09 13:00:36;;;;;;;;;31.50;28.50;;;;;5.48;94.51;100401.22;4885690;29;49826;-65
2022/12/09 13:03:23;;;;;;;;;30.75;26.00;;;;;5.53;93.76;100423.09;4868077;29;50693;-70
2022/12/09 13:05:51;;;;;;;;;30.50;29.75;;;;;5.19;93.71;100363.72;4877085;29;49764;-72
2022/12/09 13:08:36;;;;;;;;;32.00;27.50;;;;;5.46;93.75;100426.31;4875840;29;50196;-69
2022/12/09 13:11:30;;;;;;;;;29.25;27.00;;;;;5.35;94.50;100431.13;4869103;29;50091;-72
2022/12/09 13:14:15;;;;;;;;;31.00;26.75;;;;;5.35;95.20;100425.03;4881845;29;49727;-74
2022/12/09 13:16:42;;;;;;;;;35.75;32.50;;;;;5.42;94.98;100435.75;4874082;29;49891;-70
2022/12/09 13:19:34;;;;;;;;;30.75;28.50;;;;;5.12;93.94;100374.78;4875183;29;49841;-79
2022/12/09 13:22:00;;;;;;;;;26.25;24.00;;;;;5.39;94.94;100417.38;4877167;29;49787;-70
2022/12/09 13:24:39;;;;;;;;;33.50;28.50;;;;;5.43;95.61;100421.00;4883164;29;50198;-72
2022/12/09 13:27:15;;;;;;;;;29.25;27.00;;;;;5.47;95.68;100421.16;4874197;29;49727;-65
2022/12/09 13:29:56;;;;;;;;;34.50;31.25;;;;;5.47;96.64;100410.75;4882855;29;49895;-75
2022/12/09 13:32:40;;;;;;;;;40.75;32.50;;;;;5.45;96.09;100417.63;4874235;29;49826;-66
2022/12/09 13:35:15;;;;;;;;;29.75;27.00;;;;;5.45;94.98;100414.13;4882532;29;50380;-68
2022/12/09 13:37:40;;;;;;;;;30.25;28.25;;;;;5.45;95.19;100411.53;4879827;29;50012;-69
2022/12/09 13:40:26;;;;;;;;;33.50;29.75;;;;;5.45;95.92;100404.59;4879122;29;49846;-69
2022/12/09 13:43:17;;;;;;;;;32.25;28.25;;;;;5.40;95.96;100397.44;4884430;29;49730;-76
2022/12/09 13:45:42;;;;;;;;;29.25;27.25;;;;;5.48;95.53;100406.41;4878791;29;49985;-67
2022/12/09 13:48:10;;;;;;;;;40.00;32.00;;;;;5.48;95.32;100406.41;4881428;29;49627;-68
2022/12/09 13:50:52;;;;;;;;;39.75;35.50;;;;;5.43;96.27;100394.97;4880803;29;49685;-66
2022/12/09 13:53:18;;;;;;;;;33.25;30.50;;;;;5.40;96.50;100400.97;4876965;29;49708;-74
2022/12/09 13:55:48;;;;;;;;;33.75;33.50;;;;;5.39;96.63;100403.47;4876996;29;50753;-67
2022/12/09 13:58:22;;;;;;;;;37.50;34.75;;;;;5.43;96.97;100394.97;4877056;29;49679;-70
2022/12/09 14:01:26;;;;;;;;;37.25;33.00;;;;;5.45;96.24;100385.50;4877190;29;49910;-66
2022/12/09 14:04:12;;;;;;;;;43.25;36.50;;;;;5.49;96.69;100405.59;4870690;29;49802;-79
2022/12/09 14:06:43;;;;;;;;;39.00;29.00;;;;;5.47;95.96;100397.72;4876438;29;49876;-83
2022/12/09 14:09:20;;;;;;;;;36.00;34.25;;;;;5.49;96.69;100395.16;4876573;29;50014;-70
2022/12/09 14:11:47;;;;;;;;;27.25;26.75;;;;;4.85;96.62;100299.22;4877122;29;49771;-70
2022/12/09 14:14:22;;;;;;;;;34.75;30.25;;;;;5.45;96.02;100393.31;4877887;29;49883;-74
2022/12/09 14:16:49;;;;;;;;;35.25;30.00;;;;;5.39;95.80;100380.06;4875642;29;51061;-83
2022/12/09 14:19:59;;;;;;;;;28.25;26.75;;;;;5.47;96.61;100397.72;4877035;29;49925;-71
2022/12/09 14:22:25;;;;;;;;;37.75;31.00;;;;;5.43;95.88;100397.56;4876418;29;49831;-76
2022/12/09 14:24:50;;;;;;;;;30.25;28.50;;;;;5.36;95.25;100398.19;4876560;29;50012;-77
2022/12/09 14:27:21;;;;;;;;;29.25;26.50;;;;;4.64;95.52;100286.31;4876343;29;50127;-74
2022/12/09 14:30:03;;;;;;;;;27.00;24.50;;;;;4.67;95.34;100304.63;4876497;29;49804;-80
2022/12/09 14:32:51;;;;;;;;;31.25;28.25;;;;;5.17;95.10;100374.09;4871791;29;49872;-78
2022/12/09 14:35:45;;;;;;;;;29.00;27.50;;;;;4.19;95.62;100204.94;4876898;29;50049;-69
2022/12/09 14:38:16;;;;;;;;;31.50;28.50;;;;;5.26;96.11;100393.47;4872204;29;51396;-74
2022/12/09 14:40:58;;;;;;;;;24.00;23.25;;;;;5.18;96.07;100373.25;4875965;29;50072;-69
2022/12/09 14:43:43;;;;;;;;;25.50;23.75;;;;;5.34;95.87;100403.34;4876238;29;50009;-69
2022/12/09 14:46:32;;;;;;;;;29.75;25.50;;;;;5.31;96.04;100402.34;4876021;29;50194;-69
2022/12/09 14:49:07;;;;;;;;;26.50;24.50;;;;;5.25;96.88;100422.94;4875990;29;50416;-68
2022/12/09 14:51:39;;;;;;;;;26.75;25.00;;;;;5.29;96.93;100409.19;4872340;29;49804;-78
2022/12/09 14:54:16;;;;;;;;;32.75;27.75;;;;;5.19;96.97;100394.97;4876230;29;49748;-69
2022/12/09 14:56:48;;;;;;;;;27.50;23.25;;;;;5.26;97.08;100422.09;4876124;29;49632;-69
2022/12/09 14:59:20;;;;;;;;;30.25;22.75;;;;;5.04;96.51;100390.09;4875565;29;49758;-69
2022/12/09 15:02:09;;;;;;;;;28.00;26.50;;;;;5.24;96.96;100424.66;4875805;29;49773;-71
2022/12/09 15:04:40;;;;;;;;;30.75;25.25;;;;;4.95;96.83;100394.97;4865508;29;50002;-69
2022/12/09 15:07:14;;;;;;;;;35.25;29.25;;;;;5.25;97.28;100425.53;4876179;29;49920;-70
2022/12/09 15:09:55;;;;;;;;;35.50;31.50;;;;;5.25;95.87;100420.34;4874658;29;49862;-68
2022/12/09 15:12:28;;;;;;;;;29.25;28.00;;;;;5.23;97.26;100419.41;4875081;29;49881;-66
2022/12/09 15:15:03;;;;;;;;;35.25;29.25;;;;;5.26;97.17;100425.59;4876206;29;49807;-67
2022/12/09 15:17:35;;;;;;;;;27.50;23.50;;;;;5.23;97.16;100428.09;4876624;29;49792;-67
2022/12/09 15:20:03;;;;;;;;;29.00;26.50;;;;;4.83;97.11;100364.19;4875669;29;51212;-70
2022/12/09 15:22:30;;;;;;;;;35.25;27.50;;;;;5.18;97.82;100425.31;4875756;29;50084;-67
2022/12/09 15:24:56;;;;;;;;;30.25;29.00;;;;;5.18;97.41;100434.81;4875984;29;49871;-66
2022/12/09 15:27:23;;;;;;;;;30.00;26.25;;;;;4.96;98.60;100404.53;4879410;29;49994;-67
2022/12/09 15:29:49;;;;;;;;;26.75;26.25;;;;;5.03;98.95;100424.75;4875384;29;51491;-66
2022/12/09 15:32:21;;;;;;;;;35.25;33.25;;;;;5.08;99.08;100432.72;4875136;29;49812;-68
2022/12/09 15:34:47;;;;;;;;;33.75;30.25;;;;;5.06;99.51;100434.38;4876178;29;49983;-69
2022/12/09 15:37:14;;;;;;;;;38.75;30.75;;;;;5.04;99.07;100434.31;4878192;29;49804;-67
2022/12/09 15:39:50;;;;;;;;;40.75;34.50;;;;;5.03;99.93;100426.47;4875568;29;50626;-67
2022/12/09 15:42:24;;;;;;;;;36.75;32.75;;;;;4.97;100.00;100437.53;4879590;29;49859;-68
2022/12/09 15:45:02;;;;;;;;;36.25;32.00;;;;;4.97;100.00;100436.63;4878452;29;49539;-68
2022/12/09 15:47:35;;;;;;;;;38.50;32.25;;;;;4.74;100.00;100422.75;4876531;29;49761;-70
2022/12/09 15:50:13;;;;;;;;;10.50;7.25;;;;;4.40;100.00;100364.25;4877147;29;51080;-68
2022/12/09 15:53:02;;;;;;;;;39.50;38.25;;;;;4.81;100.00;100437.75;4875391;29;49828;-68
2022/12/09 15:55:28;;;;;;;;;43.75;38.25;;;;;4.85;100.00;100450.06;4869029;29;49919;-67
2022/12/09 15:57:56;;;;;;;;;40.00;34.00;;;;;4.60;100.00;100410.09;4875578;29;49673;-66
2022/12/09 16:00:21;;;;;;;;;39.25;33.75;;;;;4.74;100.00;100434.03;4874890;29;50368;-68
2022/12/09 16:02:48;;;;;;;;;34.50;32.25;;;;;4.34;100.00;100391.69;4875551;29;49657;-67
2022/12/09 16:05:22;;;;;;;;;33.25;32.00;;;;;4.76;100.00;100463.59;4875290;29;49733;-68
2022/12/09 16:07:53;;;;;;;;;33.50;31.00;;;;;4.66;100.00;100439.78;4874925;29;49704;-67
2022/12/09 16:10:25;;;;;;;;;35.25;31.00;;;;;4.58;100.00;100439.47;4874948;29;51887;-68
2022/12/09 16:13:04;;;;;;;;;37.75;29.50;;;;;4.57;100.00;100446.38;4874956;29;49772;-68
2022/12/09 16:15:42;;;;;;;;;30.50;29.00;;;;;4.56;100.00;100460.22;4875165;29;49899;-67
2022/12/09 16:18:14;;;;;;;;;48.50;39.00;;;;;4.55;100.00;100461.03;4875437;29;49787;-69
2022/12/09 16:20:40;;;;;;;;;31.00;29.75;;;;;4.55;100.00;100457.56;4875020;29;51076;-68
2022/12/09 16:23:19;;;;;;;;;42.50;40.25;;;;;4.53;100.00;100461.78;4871261;29;49752;-72
2022/12/09 16:25:48;;;;;;;;;47.00;38.50;;;;;4.30;100.00;100432.28;4869910;29;50954;-69
2022/12/09 16:28:22;;;;;;;;;43.25;38.25;;;;;4.46;100.00;100459.78;4874615;29;50097;-72
2022/12/09 16:30:49;;;;;;;;;34.75;29.75;;;;;4.44;100.00;100461.41;4874851;29;50657;-78
2022/12/09 16:33:20;;;;;;;;;38.75;33.25;;;;;4.41;100.00;100451.78;4875009;29;49738;-78
2022/12/09 16:35:56;;;;;;;;;32.75;29.00;;;;;4.36;100.00;100453.31;4875312;29;49728;-68
2022/12/09 16:38:21;;;;;;;;;45.25;34.75;;;;;4.24;100.00;100430.28;4874993;29;50282;-68
2022/12/09 16:40:52;;;;;;;;;38.75;33.75;;;;;4.33;100.00;100450.56;4874857;29;49914;-77
2022/12/09 16:43:19;;;;;;;;;42.50;37.25;;;;;4.29;100.00;100448.69;4874972;29;49590;-69
2022/12/09 16:45:49;;;;;;;;;51.00;41.75;;;;;4.28;100.00;100449.53;4874915;29;49787;-68
2022/12/09 16:48:16;;;;;;;;;33.75;28.75;;;;;4.26;100.00;100446.88;4875067;29;49800;-67
2022/12/09 16:50:46;;;;;;;;;45.75;41.00;;;;;4.24;100.00;100458.88;4874572;29;49958;-75
2022/12/09 16:53:14;;;;;;;;;52.25;42.75;;;;;4.17;100.00;100453.41;4874551;29;49752;-73
2022/12/09 16:55:51;;;;;;;;;51.50;44.00;;;;;4.22;100.00;100467.44;4875029;29;49736;-71
2022/12/09 16:58:17;;;;;;;;;44.75;42.75;;;;;4.26;100.00;100472.84;4875055;29;49839;-75
2022/12/09 17:00:43;;;;;;;;;62.50;46.75;;;;;4.24;100.00;100455.41;4874701;29;49754;-65
2022/12/09 17:03:17;;;;;;;;;56.50;44.50;;;;;4.36;100.00;100468.91;4874628;29;49606;-74
2022/12/09 17:05:43;;;;;;;;;60.75;43.50;;;;;4.42;100.00;100468.25;4874140;29;49902;-65
2022/12/09 17:08:08;;;;;;;;;60.00;47.75;;;;;4.36;100.00;100457.63;4874091;29;49895;-71
2022/12/09 17:10:34;;;;;;;;;56.00;44.75;;;;;4.32;100.00;100459.19;4874564;29;49927;-69
2022/12/09 17:13:01;;;;;;;;;54.00;45.50;;;;;4.20;100.00;100441.41;4874680;29;49750;-75
2022/12/09 17:15:27;;;;;;;;;56.00;41.50;;;;;4.37;100.00;100470.69;4874832;29;49716;-76
2022/12/09 17:17:52;;;;;;;;;60.50;47.00;;;;;4.39;100.00;100471.63;4874872;29;49887;-67
2022/12/09 17:20:17;;;;;;;;;47.75;39.50;;;;;4.29;100.00;100456.50;4874785;29;49754;-67
2022/12/09 17:22:43;;;;;;;;;51.75;43.00;;;;;4.37;100.00;100470.69;4877355;29;52259;-79
2022/12/09 17:25:09;;;;;;;;;62.25;46.00;;;;;4.36;100.00;100470.63;4877683;29;49846;-66
2022/12/09 17:27:34;;;;;;;;;57.50;41.75;;;;;4.30;100.00;100479.94;4878036;29;49647;-69
2022/12/09 17:30:00;;;;;;;;;53.75;44.75;;;;;4.29;100.00;100488.56;4877341;29;50384;-65
2022/12/09 17:32:25;;;;;;;;;58.25;46.25;;;;;4.30;100.00;100486.84;4877658;29;49569;-71
2022/12/09 17:34:52;;;;;;;;;54.25;43.00;;;;;4.30;100.00;100492.03;4877754;29;49740;-67
2022/12/09 17:37:18;;;;;;;;;55.00;45.50;;;;;4.29;100.00;100496.34;4877483;29;49839;-66
2022/12/09 17:39:43;;;;;;;;;56.25;45.00;;;;;4.23;100.00;100474.41;4876699;29;68270;-71
2022/12/09 17:42:08;;;;;;;;;65.00;53.50;;;;;3.89;100.00;100413.28;4877298;29;49783;-76
2022/12/09 17:44:34;;;;;;;;;58.25;45.50;;;;;4.27;100.00;100500.59;4877166;29;49824;-66
2022/12/09 17:46:59;;;;;;;;;62.50;52.00;;;;;4.28;100.00;100485.91;4876665;29;51112;-72
2022/12/09 17:49:24;;;;;;;;;61.25;47.00;;;;;4.31;100.00;100497.28;4878904;29;50977;-75
2022/12/09 17:51:50;;;;;;;;;63.00;49.00;;;;;4.16;100.00;100472.41;4880944;29;49787;-73
2022/12/09 17:54:15;;;;;;;;;65.25;50.75;;;;;4.32;100.00;100498.19;4888876;29;49779;-66
2022/12/09 17:56:40;;;;;;;;;65.25;53.00;;;;;4.35;100.00;100507.84;4877530;29;49856;-66
2022/12/09 17:59:09;;;;;;;;;59.50;49.25;;;;;4.35;100.00;100516.53;4876371;29;49792;-72
2022/12/09 18:01:36;;;;;;;;;58.00;49.75;;;;;4.26;100.00;100492.75;4877930;29;49872;-67
2022/12/09 18:04:08;;;;;;;;;58.75;49.50;;;;;4.32;100.00;100512.06;4875649;29;50121;-78
2022/12/09 18:06:34;;;;;;;;;66.00;50.25;;;;;4.36;100.00;100515.69;4879976;29;49798;-65
2022/12/09 18:09:01;;;;;;;;;61.75;49.50;;;;;4.38;100.00;100510.56;4889870;29;49707;-81
2022/12/09 18:11:27;;;;;;;;;53.00;46.50;;;;;4.38;100.00;100515.75;4884340;29;49557;-67
2022/12/09 18:13:52;;;;;;;;;62.75;46.75;;;;;4.39;100.00;100518.41;4882270;29;49939;-67
2022/12/09 18:16:18;;;;;;;;;59.00;46.50;;;;;4.36;100.00;100515.69;4876630;29;49699;-66
2022/12/09 18:18:44;;;;;;;;;62.75;48.25;;;;;4.11;100.00;100476.50;4876615;29;49877;-67
2022/12/09 18:21:09;;;;;;;;;60.00;48.00;;;;;3.97;100.00;100461.25;4876736;29;50070;-67
2022/12/09 18:23:35;;;;;;;;;55.00;42.50;;;;;4.33;100.00;100523.34;4876350;29;49857;-68
2022/12/09 18:26:05;;;;;;;;;55.25;47.50;;;;;4.34;100.00;100535.50;4876948;29;49741;-67
2022/12/09 18:28:30;;;;;;;;;54.50;47.25;;;;;4.34;100.00;100538.09;4875125;29;50671;-67
2022/12/09 18:30:56;;;;;;;;;48.75;42.75;;;;;4.05;100.00;100497.03;4875780;29;59012;-67
2022/12/09 18:33:23;;;;;;;;;56.00;47.00;;;;;4.26;100.00;100549.91;4890609;29;49698;-67
2022/12/09 18:35:48;;;;;;;;;60.75;48.50;;;;;4.11;100.00;100513.75;4870670;29;49689;-68
2022/12/09 18:38:14;;;;;;;;;66.75;50.25;;;;;4.26;100.00;100534.31;4876061;29;50235;-68
2022/12/09 18:43:27;;;;;;;;;57.50;46.25;;;;;4.24;100.00;100534.22;4877016;29;49855;-68
2022/12/09 18:45:53;;;;;;;;;56.75;46.25;;;;;4.32;100.00;100543.25;4876817;29;49854;-69
2022/12/09 18:48:19;;;;;;;;;63.75;53.00;;;;;3.88;100.00;100468.63;4875031;29;50443;-67
2022/12/09 18:50:44;;;;;;;;;58.50;48.75;;;;;4.03;100.00;100492.66;4876212;29;49866;-67
2022/12/09 18:53:09;;;;;;;;;51.75;42.50;;;;;4.41;100.00;100550.53;4875456;29;62308;-67
2022/12/09 18:55:41;;;;;;;;;63.25;48.75;;;;;4.31;100.00;100535.38;4876757;29;50217;-68
2022/12/09 18:58:07;;;;;;;;;56.00;46.25;;;;;4.46;100.00;100543.84;4877460;29;51126;-73
2022/12/09 19:00:32;;;;;;;;;63.50;51.75;;;;;3.63;100.00;100409.56;4875651;29;49849;-80
2022/12/09 19:02:57;;;;;;;;;61.50;48.25;;;;;3.78;100.00;100458.69;4892749;29;49809;-76
2022/12/09 19:05:23;;;;;;;;;57.00;46.25;;;;;3.10;100.00;100330.31;4893172;28;49940;-70